Time;durP1;ratioP1;P1;durP2;ratioP2;P2;SDS_P1;SDS_P2;PMS_P1;PMS_P2;Temp;Humidity;BMP_temperature;BMP_pressure;BME280_temperature;BME280_humidity;BME280_pressure;Samples;Min_cycle;Max_cycle;Signal;HPM_P1;HPM_P2
2022/06/09 00:01:59;;;;;;;10.10;8.85;;;13.90;99.90;;;;;;5028994;28;20059;-69
2022/06/09 00:04:32;;;;;;;13.25;8.80;;;14.10;99.90;;;;;;5030426;28;20045;-69
2022/06/09 00:07:17;;;;;;;13.17;7.73;;;14.00;99.90;;;;;;5031313;28;20037;-69
2022/06/09 00:09:50;;;;;;;21.80;9.15;;;14.10;99.90;;;;;;5031257;28;20337;-69
2022/06/09 00:12:16;;;;;;;13.73;7.35;;;14.10;99.90;;;;;;5030220;28;20021;-69
2022/06/09 00:14:42;;;;;;;15.32;7.10;;;14.10;99.90;;;;;;5030185;28;20040;-69
2022/06/09 00:17:08;;;;;;;14.82;7.22;;;14.20;99.90;;;;;;5030540;28;20021;-69
2022/06/09 00:19:34;;;;;;;14.27;7.20;;;14.20;99.90;;;;;;5030811;28;20040;-69
2022/06/09 00:21:59;;;;;;;18.83;7.38;;;14.40;99.90;;;;;;5030509;28;20073;-69
2022/06/09 00:24:26;;;;;;;13.48;6.72;;;;;;;;;;5030361;28;20112;-69
2022/06/09 00:26:51;;;;;;;18.55;6.80;;;14.20;99.90;;;;;;5031047;28;20030;-69
2022/06/09 00:29:17;;;;;;;14.85;6.20;;;13.90;99.90;;;;;;5030318;28;20039;-69
2022/06/09 00:31:43;;;;;;;9.82;5.70;;;14.40;99.90;;;;;;5030087;28;20034;-69
2022/06/09 00:34:09;;;;;;;11.50;6.30;;;14.10;99.90;;;;;;5030233;28;20112;-69
2022/06/09 00:36:35;;;;;;;16.85;6.72;;;14.20;99.90;;;;;;5030716;28;20382;-69
2022/06/09 00:39:00;;;;;;;18.67;5.45;;;14.40;99.90;;;;;;5029909;28;20021;-69
2022/06/09 00:41:27;;;;;;;13.38;4.70;;;14.10;99.90;;;;;;5030409;28;20101;-69
2022/06/09 00:43:53;;;;;;;10.63;5.43;;;14.50;99.90;;;;;;5030467;28;20026;-69
2022/06/09 00:46:25;;;;;;;10.15;4.93;;;14.50;99.90;;;;;;5029947;28;20040;-69
2022/06/09 00:48:56;;;;;;;9.55;4.93;;;14.20;99.90;;;;;;5029738;28;20415;-69
2022/06/09 00:51:32;;;;;;;8.23;4.40;;;14.10;99.90;;;;;;5023340;28;20033;-69
2022/06/09 00:54:04;;;;;;;13.70;5.15;;;14.40;99.90;;;;;;5029784;28;20045;-69
2022/06/09 00:56:32;;;;;;;14.32;5.15;;;14.30;99.90;;;;;;5030172;28;20025;-69
2022/06/09 00:58:58;;;;;;;13.35;4.93;;;14.20;99.90;;;;;;5030082;28;20552;-69
2022/06/09 01:01:24;;;;;;;13.25;5.13;;;14.30;99.90;;;;;;5029936;28;20546;-69
2022/06/09 01:04:00;;;;;;;7.80;4.85;;;14.20;99.90;;;;;;5030104;28;20121;-69
2022/06/09 01:06:29;;;;;;;16.92;4.55;;;14.10;99.90;;;;;;5030263;28;20748;-69
2022/06/09 01:09:06;;;;;;;17.90;5.38;;;14.00;99.90;;;;;;5029347;28;20094;-69
2022/06/09 01:11:32;;;;;;;15.30;5.20;;;13.60;99.90;;;;;;5029784;28;20425;-69
2022/06/09 01:13:59;;;;;;;19.10;6.20;;;13.80;99.90;;;;;;5029594;28;20032;-69
2022/06/09 01:16:44;;;;;;;10.48;5.00;;;14.00;99.90;;;;;;5029870;28;20025;-69
2022/06/09 01:19:43;;;;;;;15.27;4.63;;;13.90;99.90;;;;;;5029434;28;20492;-69
2022/06/09 01:22:25;;;;;;;14.95;4.88;;;13.60;99.90;;;;;;5020769;28;20037;-69
2022/06/09 01:24:56;;;;;;;12.45;4.55;;;13.90;99.90;;;;;;5029576;28;20022;-69
2022/06/09 01:27:34;;;;;;;16.90;6.05;;;13.80;99.90;;;;;;5029292;28;20096;-69
2022/06/09 01:30:18;;;;;;;16.13;7.40;;;13.80;99.90;;;;;;5027422;28;21273;-68
2022/06/09 01:32:55;;;;;;;14.40;5.82;;;13.60;99.90;;;;;;5029654;28;20479;-69
2022/06/09 01:35:42;;;;;;;9.13;5.13;;;13.60;99.90;;;;;;5028053;28;20018;-69
2022/06/09 01:38:09;;;;;;;12.88;5.45;;;13.50;99.90;;;;;;5028673;28;20356;-69
2022/06/09 01:40:34;;;;;;;14.20;4.75;;;13.60;99.90;;;;;;5029425;28;20037;-69
2022/06/09 01:43:00;;;;;;;17.27;6.03;;;13.80;99.90;;;;;;5029027;28;20489;-69
2022/06/09 01:45:37;;;;;;;13.63;5.75;;;13.60;99.90;;;;;;5029250;28;20095;-69
2022/06/09 01:48:10;;;;;;;15.38;5.30;;;13.40;99.90;;;;;;5029072;28;20132;-69
2022/06/09 01:50:46;;;;;;;20.58;7.03;;;13.50;99.90;;;;;;5024231;28;20083;-69
2022/06/09 01:53:18;;;;;;;12.45;6.13;;;13.60;99.90;;;;;;5020770;28;20045;-69
2022/06/09 01:55:49;;;;;;;14.90;5.28;;;13.50;99.90;;;;;;5029174;28;20395;-69
2022/06/09 01:58:19;;;;;;;15.65;6.22;;;13.50;99.90;;;;;;5029079;28;20087;-69
2022/06/09 02:00:45;;;;;;;10.80;5.40;;;13.30;99.90;;;;;;5029131;28;20029;-69
2022/06/09 02:03:25;;;;;;;11.20;5.82;;;13.40;99.90;;;;;;5028891;28;20061;-69
2022/06/09 02:05:54;;;;;;;13.68;5.55;;;13.50;99.90;;;;;;5029150;28;20123;-69
2022/06/09 02:08:23;;;;;;;12.13;4.85;;;13.40;99.90;;;;;;5028829;28;20029;-69
2022/06/09 02:10:54;;;;;;;11.80;5.25;;;13.30;99.90;;;;;;5029358;28;20030;-70
2022/06/09 02:13:29;;;;;;;14.93;5.10;;;13.20;99.90;;;;;;5028739;28;20014;-69
2022/06/09 02:15:59;;;;;;;9.23;5.70;;;13.40;99.90;;;;;;5029231;28;20033;-69
2022/06/09 02:18:28;;;;;;;13.48;5.07;;;13.30;99.90;;;;;;5029177;28;20057;-69
2022/06/09 02:21:10;;;;;;;13.68;5.97;;;12.70;99.90;;;;;;5010479;28;20069;-69
2022/06/09 02:23:36;;;;;;;13.60;5.07;;;13.20;99.90;;;;;;5028522;28;20033;-69
2022/06/09 02:26:03;;;;;;;13.80;6.03;;;13.20;99.90;;;;;;5028457;28;20325;-69
2022/06/09 02:28:29;;;;;;;17.13;5.47;;;13.00;99.90;;;;;;5029023;28;20017;-69
2022/06/09 02:30:55;;;;;;;13.45;5.47;;;13.10;99.90;;;;;;5028991;28;20040;-69
2022/06/09 02:33:21;;;;;;;16.48;6.03;;;13.10;99.90;;;;;;5028387;28;20059;-69
2022/06/09 02:35:51;;;;;;;16.13;5.40;;;13.10;99.90;;;;;;5024225;28;20025;-68
2022/06/09 02:38:18;;;;;;;20.42;6.47;;;12.90;99.90;;;;;;5023872;28;20017;-68
2022/06/09 02:40:44;;;;;;;15.15;5.95;;;13.00;99.90;;;;;;5027584;28;20069;-69
2022/06/09 02:43:10;;;;;;;20.30;6.60;;;12.90;99.90;;;;;;5031844;28;20024;-68
2022/06/09 02:45:36;;;;;;;11.30;5.28;;;12.90;99.90;;;;;;5031748;28;20025;-68
2022/06/09 02:48:02;;;;;;;13.75;4.95;;;12.90;99.90;;;;;;5029376;28;20032;-69
2022/06/09 02:50:28;;;;;;;13.20;6.40;;;12.80;99.90;;;;;;5026961;28;20026;-68
2022/06/09 02:52:54;;;;;;;14.45;6.18;;;12.90;99.90;;;;;;5030664;28;20032;-69
2022/06/09 02:55:20;;;;;;;14.00;5.47;;;12.70;99.90;;;;;;5031368;28;20022;-69
2022/06/09 02:57:45;;;;;;;11.52;5.45;;;12.80;99.90;;;;;;5030528;28;20029;-69
2022/06/09 03:00:14;;;;;;;9.90;5.20;;;13.10;99.90;;;;;;5031508;28;20036;-69
2022/06/09 03:02:41;;;;;;;11.63;6.10;;;12.80;99.90;;;;;;5032697;28;20040;-69
2022/06/09 03:05:07;;;;;;;14.70;5.82;;;;;;;;;;5030242;28;20084;-69
2022/06/09 03:07:34;;;;;;;11.70;5.18;;;;;;;;;;5029455;28;20038;-69
2022/06/09 03:09:59;;;;;;;15.45;6.13;;;12.60;99.90;;;;;;5029695;28;20096;-69
2022/06/09 03:12:25;;;;;;;10.23;5.65;;;;;;;;;;5030383;28;20100;-68
2022/06/09 03:14:51;;;;;;;12.98;5.43;;;;;;;;;;5030509;28;20395;-69
2022/06/09 03:17:17;;;;;;;13.70;6.20;;;12.70;99.90;;;;;;5029884;28;20018;-69
2022/06/09 03:19:43;;;;;;;12.35;6.20;;;12.80;99.90;;;;;;5029797;28;20029;-69
2022/06/09 03:22:08;;;;;;;11.23;6.13;;;12.50;99.90;;;;;;5030706;28;20033;-68
2022/06/09 03:24:35;;;;;;;19.60;6.28;;;12.90;99.90;;;;;;5022396;28;20048;-69
2022/06/09 03:27:00;;;;;;;16.15;6.50;;;13.00;99.90;;;;;;5017419;28;20113;-69
2022/06/09 03:29:26;;;;;;;41.42;6.93;;;13.30;99.90;;;;;;5031967;28;20092;-69
2022/06/09 03:31:52;;;;;;;17.92;6.43;;;13.00;99.90;;;;;;5032050;28;20021;-69
2022/06/09 03:34:21;;;;;;;18.48;6.13;;;;;;;;;;5031082;28;20060;-69
2022/06/09 03:36:46;;;;;;;22.63;6.13;;;13.10;99.90;;;;;;5031591;28;20083;-69
2022/06/09 03:39:13;;;;;;;13.23;5.30;;;13.00;99.90;;;;;;5019873;28;20030;-69
2022/06/09 03:41:39;;;;;;;19.83;5.35;;;12.90;99.90;;;;;;5031812;28;20060;-69
2022/06/09 03:44:05;;;;;;;15.38;5.78;;;13.20;99.90;;;;;;5031326;28;20052;-69
2022/06/09 03:46:31;;;;;;;11.60;6.80;;;;;;;;;;5031731;28;20026;-69
2022/06/09 03:48:57;;;;;;;11.88;5.70;;;;;;;;;;5031315;28;20466;-69
2022/06/09 03:51:23;;;;;;;9.80;5.30;;;;;;;;;;5031318;28;20025;-69
2022/06/09 03:53:49;;;;;;;19.45;6.38;;;13.40;99.90;;;;;;5031647;28;20029;-69
2022/06/09 03:56:19;;;;;;;16.20;6.72;;;13.50;99.90;;;;;;5030990;28;20075;-69
2022/06/09 03:58:45;;;;;;;15.07;6.50;;;13.50;99.90;;;;;;5031517;28;20061;-69
2022/06/09 04:01:13;;;;;;;15.35;6.25;;;13.40;99.90;;;;;;5031082;28;20428;-68
2022/06/09 04:03:40;;;;;;;17.75;6.95;;;13.50;99.90;;;;;;5030807;28;20390;-69
2022/06/09 04:06:07;;;;;;;15.88;6.65;;;13.60;99.90;;;;;;5030189;28;20500;-69
2022/06/09 04:08:33;;;;;;;13.38;5.88;;;13.70;99.90;;;;;;5031382;28;20057;-69
2022/06/09 04:10:59;;;;;;;18.42;6.65;;;13.70;99.90;;;;;;5030852;28;20119;-69
2022/06/09 04:13:24;;;;;;;15.00;6.60;;;13.60;99.90;;;;;;5031295;28;20018;-69
2022/06/09 04:15:50;;;;;;;16.95;7.57;;;;;;;;;;5031188;28;20439;-69
2022/06/09 04:18:16;;;;;;;14.40;5.90;;;13.90;99.90;;;;;;5030209;28;20026;-69
2022/06/09 04:20:41;;;;;;;15.20;6.32;;;13.70;99.90;;;;;;5031214;28;20045;-69
2022/06/09 04:23:07;;;;;;;17.13;6.85;;;14.00;99.90;;;;;;5030588;28;20024;-69
2022/06/09 04:25:33;;;;;;;16.00;6.00;;;13.80;99.90;;;;;;5031121;28;20057;-69
2022/06/09 04:27:59;;;;;;;14.52;7.10;;;;;;;;;;5030555;28;20037;-69
2022/06/09 04:30:25;;;;;;;16.30;6.88;;;13.80;99.90;;;;;;5030930;28;20025;-69
2022/06/09 04:32:50;;;;;;;14.82;7.22;;;13.90;99.90;;;;;;5029845;28;20474;-69
2022/06/09 04:35:16;;;;;;;12.60;6.38;;;14.20;99.90;;;;;;5030356;28;20072;-69
2022/06/09 04:37:59;;;;;;;34.75;7.95;;;13.90;99.90;;;;;;5030949;28;20141;-69
2022/06/09 04:40:27;;;;;;;23.08;6.57;;;13.70;99.90;;;;;;5030423;28;20056;-70
2022/06/09 04:42:52;;;;;;;13.38;7.40;;;14.00;99.90;;;;;;5030742;28;20037;-69
2022/06/09 04:45:19;;;;;;;18.48;6.45;;;14.30;99.90;;;;;;5029928;28;20396;-69
2022/06/09 04:47:45;;;;;;;18.95;7.60;;;14.10;99.90;;;;;;5030199;28;20026;-69
2022/06/09 04:50:13;;;;;;;12.32;7.05;;;13.80;99.90;;;;;;5030046;28;20056;-69
2022/06/09 04:52:39;;;;;;;19.75;8.73;;;14.10;99.90;;;;;;5030424;28;20029;-70
2022/06/09 04:55:05;;;;;;;21.13;8.25;;;14.00;99.90;;;;;;5030065;28;20479;-69
2022/06/09 04:57:31;;;;;;;13.77;6.57;;;14.10;99.90;;;;;;5030402;28;20112;-69
2022/06/09 04:59:57;;;;;;;22.40;7.75;;;14.20;99.90;;;;;;5029480;28;20475;-70
2022/06/09 05:02:22;;;;;;;13.85;7.75;;;14.00;99.90;;;;;;5029181;28;20116;-69
2022/06/09 05:04:48;;;;;;;18.42;8.13;;;;;;;;;;5030125;28;20049;-69
2022/06/09 05:07:14;;;;;;;18.35;8.13;;;14.10;99.90;;;;;;5029620;28;20112;-69
2022/06/09 05:09:39;;;;;;;22.88;8.25;;;14.30;99.90;;;;;;5030188;28;20033;-69
2022/06/09 05:12:05;;;;;;;16.55;8.07;;;14.20;99.90;;;;;;5029753;28;20028;-69
2022/06/09 05:14:31;;;;;;;19.90;8.57;;;14.50;99.90;;;;;;5029606;28;20030;-69
2022/06/09 05:16:56;;;;;;;22.63;8.45;;;14.60;99.90;;;;;;5029558;28;20026;-69
2022/06/09 05:19:22;;;;;;;22.35;8.43;;;15.60;99.90;;;;;;5029429;28;20030;-69
2022/06/09 05:21:47;;;;;;;18.08;8.38;;;14.60;99.90;;;;;;5030002;28;20087;-69
2022/06/09 05:24:13;;;;;;;21.38;8.27;;;14.30;99.90;;;;;;5028153;28;20026;-70
2022/06/09 05:26:39;;;;;;;17.67;8.40;;;14.60;99.90;;;;;;5029904;28;20029;-69
2022/06/09 05:29:04;;;;;;;13.13;6.35;;;14.50;99.90;;;;;;5029057;28;20017;-69
2022/06/09 05:31:30;;;;;;;16.10;8.20;;;14.40;99.90;;;;;;5025268;28;20337;-69
2022/06/09 05:33:55;;;;;;;17.38;7.28;;;14.50;99.90;;;;;;5027288;28;20466;-70
2022/06/09 05:36:21;;;;;;;11.82;6.75;;;14.80;99.90;;;;;;5029002;28;20029;-70
2022/06/09 05:46:59;;;;;;;21.60;4.82;;;14.90;99.90;;;;;;5026182;28;20397;-71
2022/06/09 05:49:25;;;;;;;10.05;4.57;;;14.90;99.90;;;;;;5028847;28;20052;-71
2022/06/09 05:51:52;;;;;;;9.57;3.53;;;15.10;99.90;;;;;;5028771;28;20052;-71
2022/06/09 05:54:18;;;;;;;9.75;3.47;;;15.50;99.90;;;;;;5028684;28;20406;-71
2022/06/09 05:56:44;;;;;;;6.55;3.58;;;15.20;99.90;;;;;;5029124;28;20030;-71
2022/06/09 05:59:09;;;;;;;7.70;3.38;;;15.10;99.90;;;;;;5027695;28;20032;-71
2022/06/09 06:01:35;;;;;;;8.57;3.22;;;15.40;99.90;;;;;;5028595;28;20132;-70
2022/06/09 06:04:07;;;;;;;6.72;3.40;;;15.40;99.90;;;;;;5028204;28;20045;-71
2022/06/09 06:06:35;;;;;;;6.38;3.22;;;15.70;99.90;;;;;;5029015;28;20050;-71
2022/06/09 06:09:09;;;;;;;7.88;3.00;;;15.50;99.90;;;;;;5028637;28;20017;-71
2022/06/09 06:11:37;;;;;;;7.80;3.60;;;15.70;99.90;;;;;;5030001;28;20029;-71
2022/06/09 06:14:03;;;;;;;6.32;2.83;;;15.70;99.90;;;;;;5032453;28;20243;-71
2022/06/09 06:16:28;;;;;;;5.68;2.28;;;15.80;99.90;;;;;;5030317;28;20113;-71
2022/06/09 06:18:54;;;;;;;7.82;2.70;;;16.00;99.90;;;;;;5033139;28;20089;-71
2022/06/09 06:21:21;;;;;;;3.80;2.50;;;15.60;99.90;;;;;;5031192;28;20152;-71
2022/06/09 06:23:47;;;;;;;6.00;2.28;;;15.80;99.90;;;;;;5031506;28;20043;-71
2022/06/09 06:26:13;;;;;;;8.80;2.65;;;15.90;99.90;;;;;;5032190;28;20041;-71
2022/06/09 06:28:39;;;;;;;6.65;2.38;;;16.00;99.90;;;;;;5032400;28;20025;-71
2022/06/09 06:31:04;;;;;;;4.65;2.10;;;15.70;99.90;;;;;;5032444;28;20029;-71
2022/06/09 06:33:30;;;;;;;4.13;2.00;;;16.00;99.90;;;;;;5028658;28;20022;-71
2022/06/09 06:35:55;;;;;;;6.28;2.75;;;15.90;99.90;;;;;;5032139;28;20045;-71
2022/06/09 06:38:21;;;;;;;5.35;1.65;;;16.00;99.90;;;;;;5027576;28;20109;-71
2022/06/09 06:40:47;;;;;;;3.05;2.20;;;16.20;99.90;;;;;;5029720;28;20037;-71
2022/06/09 06:43:13;;;;;;;7.97;3.13;;;16.90;99.90;;;;;;5031595;28;20378;-71
2022/06/09 06:45:39;;;;;;;7.28;1.90;;;16.40;99.90;;;;;;5032401;28;20076;-71
2022/06/09 06:48:05;;;;;;;7.93;2.05;;;16.40;99.90;;;;;;5031782;28;20029;-70
2022/06/09 06:50:31;;;;;;;2.40;1.60;;;16.40;99.90;;;;;;5031998;28;20071;-70
2022/06/09 06:52:57;;;;;;;1.83;1.17;;;;;;;;;;5030971;28;20033;-70
2022/06/09 06:55:23;;;;;;;5.07;1.92;;;16.50;99.90;;;;;;5029652;28;20470;-71
2022/06/09 06:57:49;;;;;;;3.08;2.00;;;16.60;99.90;;;;;;5029244;28;20033;-70
2022/06/09 07:00:19;;;;;;;3.45;1.65;;;16.60;99.90;;;;;;5030967;28;20429;-70
2022/06/09 07:02:45;;;;;;;2.40;1.20;;;16.80;99.90;;;;;;5025079;28;20034;-71
2022/06/09 07:05:11;;;;;;;6.45;1.65;;;16.90;99.90;;;;;;5026615;28;20045;-70
2022/06/09 07:07:39;;;;;;;3.72;1.23;;;17.10;99.90;;;;;;5032376;28;20029;-70
2022/06/09 07:10:06;;;;;;;4.22;1.17;;;17.00;99.90;;;;;;5031809;28;20098;-71
2022/06/09 07:12:32;;;;;;;3.05;1.25;;;16.90;99.90;;;;;;5031800;28;20394;-70
2022/06/09 07:14:57;;;;;;;3.55;1.67;;;16.90;99.90;;;;;;5030490;28;20025;-70
2022/06/09 07:17:24;;;;;;;4.68;1.30;;;16.70;99.90;;;;;;5031327;28;20021;-70
2022/06/09 07:19:49;;;;;;;5.35;1.50;;;16.70;99.90;;;;;;5032213;28;20084;-70
2022/06/09 07:22:15;;;;;;;9.88;2.15;;;16.90;99.90;;;;;;5030979;28;20041;-71
2022/06/09 07:24:41;;;;;;;2.25;1.30;;;18.30;99.90;;;;;;5032114;28;20463;-70
2022/06/09 07:27:07;;;;;;;3.17;1.55;;;16.90;99.90;;;;;;5031294;28;20025;-71
2022/06/09 07:29:33;;;;;;;8.50;1.30;;;18.50;99.90;;;;;;5029580;28;20095;-70
2022/06/09 07:32:00;;;;;;;2.83;1.15;;;17.20;99.90;;;;;;5026640;28;20120;-70
2022/06/09 07:34:26;;;;;;;4.57;1.20;;;17.20;99.90;;;;;;5030764;28;20034;-70
2022/06/09 07:36:53;;;;;;;5.22;1.02;;;17.30;99.90;;;;;;5031128;28;20036;-70
2022/06/09 07:39:18;;;;;;;4.63;1.40;;;17.40;99.90;;;;;;5030491;28;20104;-70
2022/06/09 07:41:45;;;;;;;6.47;1.48;;;18.70;99.90;;;;;;5030638;28;20733;-70
2022/06/09 07:44:10;;;;;;;4.60;1.60;;;17.60;99.90;;;;;;5031281;28;20036;-71
2022/06/09 07:46:36;;;;;;;2.90;1.05;;;18.40;99.90;;;;;;5031414;28;20037;-70
2022/06/09 07:49:03;;;;;;;6.60;1.58;;;17.90;99.90;;;;;;5031112;28;20025;-70
2022/06/09 07:51:30;;;;;;;2.70;1.48;;;17.80;99.90;;;;;;5031146;28;20439;-70
2022/06/09 07:53:56;;;;;;;3.97;1.90;;;17.70;99.90;;;;;;5027110;28;20056;-70
2022/06/09 07:56:23;;;;;;;3.92;2.20;;;17.70;99.90;;;;;;5025483;28;20099;-70
2022/06/09 07:58:48;;;;;;;4.47;1.50;;;17.70;99.90;;;;;;5030720;28;20032;-71
2022/06/09 08:01:17;;;;;;;3.83;2.08;;;17.90;99.90;;;;;;5030099;28;20033;-70
2022/06/09 08:03:42;;;;;;;3.90;2.03;;;18.00;99.90;;;;;;5031094;28;20386;-70
2022/06/09 08:06:09;;;;;;;4.50;2.15;;;18.00;99.90;;;;;;5031002;28;20025;-70
2022/06/09 08:08:35;;;;;;;3.63;1.95;;;19.10;99.90;;;;;;5030404;28;20558;-70
2022/06/09 08:11:01;;;;;;;3.78;2.60;;;18.10;99.90;;;;;;5030700;28;20086;-70
2022/06/09 08:13:27;;;;;;;3.67;2.13;;;18.90;99.90;;;;;;5030209;28;20385;-70
2022/06/09 08:15:53;;;;;;;5.75;2.60;;;18.80;99.90;;;;;;5030745;28;20108;-71
2022/06/09 08:18:19;;;;;;;4.05;2.28;;;17.90;99.90;;;;;;5028793;28;20049;-70
2022/06/09 08:20:45;;;;;;;4.82;1.98;;;18.50;99.90;;;;;;5029561;28;20064;-70
2022/06/09 08:23:17;;;;;;;3.80;2.17;;;18.00;99.90;;;;;;5027013;28;20076;-69
2022/06/09 08:25:44;;;;;;;3.67;1.77;;;18.10;99.90;;;;;;5016762;28;20033;-70
2022/06/09 08:28:10;;;;;;;3.25;1.77;;;19.30;99.90;;;;;;5008553;28;20026;-70
2022/06/09 08:30:37;;;;;;;3.60;1.77;;;18.70;99.90;;;;;;5028525;28;20026;-70
2022/06/09 08:33:03;;;;;;;7.10;2.58;;;18.70;99.90;;;;;;5029932;28;20036;-70
2022/06/09 08:35:29;;;;;;;2.35;1.77;;;18.90;99.90;;;;;;5029653;28;20075;-70
2022/06/09 08:37:55;;;;;;;4.32;2.10;;;19.20;99.90;;;;;;5030432;28;20028;-70
2022/06/09 08:40:31;;;;;;;3.50;1.85;;;19.40;99.90;;;;;;5029954;28;20029;-71
2022/06/09 08:43:39;;;;;;;3.15;1.70;;;19.30;99.90;;;;;;5028391;28;20033;-70
2022/06/09 08:46:19;;;;;;;3.22;1.58;;;19.50;99.90;;;;;;5020177;28;20045;-69
2022/06/09 08:48:46;;;;;;;3.00;1.02;;;19.60;99.90;;;;;;5030227;28;20013;-70
2022/06/09 08:51:18;;;;;;;3.55;1.17;;;19.90;99.90;;;;;;5030176;28;20064;-70
2022/06/09 08:53:51;;;;;;;2.13;0.87;;;19.90;99.90;;;;;;5026094;28;20104;-70
2022/06/09 08:56:21;;;;;;;3.35;0.93;;;21.20;99.90;;;;;;5020601;28;20032;-69
2022/06/09 08:58:50;;;;;;;2.58;0.68;;;19.80;99.90;;;;;;5030304;28;20505;-70
2022/06/09 09:01:33;;;;;;;1.83;0.65;;;19.90;99.90;;;;;;5029699;28;20470;-70
2022/06/09 09:04:16;;;;;;;1.55;0.50;;;20.10;99.90;;;;;;5044634;28;20490;-70
2022/06/09 09:06:56;;;;;;;2.25;0.75;;;20.10;99.90;;;;;;5044997;28;20104;-70
2022/06/09 09:09:28;;;;;;;2.55;0.98;;;20.10;99.90;;;;;;5025900;28;20025;-71
2022/06/09 09:12:22;;;;;;;3.65;1.10;;;20.10;99.90;;;;;;5028349;28;20467;-70
2022/06/09 09:14:52;;;;;;;;;;;20.00;99.90;;;;;;5017019;28;20078;-71
2022/06/09 09:17:21;;;;;;;4.38;1.10;;;20.20;99.90;;;;;;5029068;28;20250;-71
2022/06/09 09:19:58;;;;;;;6.07;0.90;;;20.00;99.90;;;;;;5028733;28;20071;-70
2022/06/09 09:22:28;;;;;;;5.47;1.65;;;20.50;99.90;;;;;;5028311;28;20040;-70
2022/06/09 09:25:06;;;;;;;4.60;1.42;;;20.20;99.90;;;;;;5024108;28;20128;-69
2022/06/09 09:27:49;;;;;;;7.32;2.00;;;20.20;99.90;;;;;;5028895;28;20462;-70
2022/06/09 09:30:44;;;;;;;5.43;1.77;;;19.90;99.90;;;;;;5025285;28;20022;-70
2022/06/09 09:33:16;;;;;;;3.75;1.80;;;20.10;99.90;;;;;;5022017;28;20117;-69
2022/06/09 09:35:44;;;;;;;4.50;1.70;;;20.20;99.90;;;;;;5025271;28;20051;-70
2022/06/09 09:38:15;;;;;;;6.95;2.10;;;20.20;99.90;;;;;;5028133;28;20120;-70
2022/06/09 09:40:49;;;;;;;5.65;1.95;;;20.50;99.90;;;;;;5028990;28;20036;-70
2022/06/09 09:43:23;;;;;;;5.95;2.63;;;20.20;99.90;;;;;;5028861;28;20155;-70
2022/06/09 09:45:52;;;;;;;3.88;1.80;;;20.10;99.90;;;;;;5024451;28;20029;-70
2022/06/09 09:48:18;;;;;;;7.63;2.70;;;19.90;99.90;;;;;;5035241;28;20047;-70
2022/06/09 09:51:10;;;;;;;7.53;2.33;;;19.80;99.90;;;;;;5028618;28;20447;-70
2022/06/09 09:53:56;;;;;;;6.03;2.45;;;20.00;99.90;;;;;;5028748;28;20425;-70
2022/06/09 09:56:30;;;;;;;7.60;3.47;;;20.20;99.90;;;;;;5028360;28;20110;-70
2022/06/09 09:58:58;;;;;;;6.00;2.55;;;20.40;99.90;;;;;;5028963;28;20034;-70
2022/06/09 10:01:24;;;;;;;3.20;1.70;;;20.60;99.90;;;;;;5028768;28;20119;-70
2022/06/09 10:09:50;;;;;;;5.88;2.10;;;22.10;99.90;;;;;;5026783;28;20091;-70
2022/06/09 10:12:29;;;;;;;5.53;1.65;;;21.50;99.90;;;;;;5028796;28;20064;-70
2022/06/09 10:15:09;;;;;;;4.72;2.00;;;21.40;99.90;;;;;;5029373;28;20071;-69
2022/06/09 10:17:55;;;;;;;3.55;2.70;;;21.30;99.90;;;;;;5029338;28;20029;-70
2022/06/09 10:20:47;;;;;;;2.70;1.70;;;21.00;99.30;;;;;;5028766;28;20116;-69
2022/06/09 10:23:21;;;;;;;3.65;2.28;;;20.60;99.90;;;;;;5028942;28;20410;-69
2022/06/09 10:26:09;;;;;;;4.90;2.28;;;20.10;99.90;;;;;;5028623;28;20014;-70
2022/06/09 10:29:06;;;;;;;3.38;1.50;;;19.70;99.90;;;;;;5029271;28;20064;-69
2022/06/09 10:31:52;;;;;;;5.25;1.80;;;19.20;99.90;;;;;;5026458;28;20605;-69
2022/06/09 10:34:34;;;;;;;4.60;1.60;;;19.00;99.90;;;;;;5027860;28;20022;-70
2022/06/09 10:37:37;;;;;;;5.00;1.92;;;19.10;99.90;;;;;;5027509;28;20362;-70
2022/06/09 10:40:31;;;;;;;3.28;1.35;;;19.50;99.90;;;;;;5027211;28;20114;-70
2022/06/09 10:43:25;;;;;;;5.28;1.70;;;19.60;99.90;;;;;;5028941;28;20033;-70
2022/06/09 10:46:11;;;;;;;4.35;1.92;;;19.90;99.90;;;;;;5022959;28;20038;-69
2022/06/09 10:57:19;;;;;;;5.93;1.13;;;20.70;99.90;;;;;;5017247;28;20028;-70
2022/06/09 11:00:13;;;;;;;5.13;0.98;;;20.90;99.80;;;;;;5032162;28;20565;-70
2022/06/09 11:02:56;;;;;;;4.32;1.13;;;21.10;98.80;;;;;;5024146;28;20621;-70
2022/06/09 11:05:32;;;;;;;3.97;1.10;;;21.20;98.50;;;;;;5028721;28;20038;-70
2022/06/09 11:08:11;;;;;;;4.38;1.80;;;21.30;99.30;;;;;;5032013;28;20501;-70
2022/06/09 11:11:17;;;;;;;4.68;1.70;;;21.30;97.60;;;;;;5031919;28;20073;-70
2022/06/09 11:13:51;;;;;;;1.42;0.75;;;21.10;97.10;;;;;;5031744;28;20497;-70
2022/06/09 11:16:18;;;;;;;;;;;20.70;97.80;;;;;;5031824;28;20017;-70
2022/06/09 11:18:46;;;;;;;4.53;0.90;;;20.50;98.40;;;;;;5031533;28;20007;-70
2022/06/09 11:21:33;;;;;;;4.13;1.75;;;20.50;96.90;;;;;;5031281;28;20108;-70
2022/06/09 11:24:29;;;;;;;2.67;0.68;;;20.70;97.20;;;;;;5031333;28;20029;-70
2022/06/09 11:27:19;;;;;;;3.28;0.65;;;20.80;97.00;;;;;;5031293;28;20024;-70
2022/06/09 11:30:00;;;;;;;5.03;1.00;;;20.70;97.40;;;;;;5020327;28;20390;-71
2022/06/09 11:32:45;;;;;;;5.10;0.65;;;20.50;95.90;;;;;;5031009;28;20053;-69
2022/06/09 11:35:36;;;;;;;3.47;0.65;;;20.60;96.40;;;;;;5030931;28;20109;-72
2022/06/09 11:38:14;;;;;;;2.42;0.80;;;20.50;95.90;;;;;;5031342;28;20037;-70
2022/06/09 11:40:48;;;;;;;1.63;0.70;;;20.50;96.60;;;;;;5019541;28;20034;-70
2022/06/09 11:43:59;;;;;;;1.67;0.70;;;22.00;96.60;;;;;;5029856;28;20108;-70
2022/06/09 11:46:31;;;;;;;1.67;0.93;;;21.00;95.10;;;;;;4985890;28;20033;-70
2022/06/09 11:49:01;;;;;;;2.53;0.70;;;21.20;95.30;;;;;;5031537;28;20039;-70
2022/06/09 11:51:29;;;;;;;2.85;0.60;;;21.50;95.10;;;;;;5030780;28;20075;-70
2022/06/09 11:53:59;;;;;;;0.68;0.40;;;21.40;94.80;;;;;;5031115;28;20022;-70
2022/06/09 11:56:33;;;;;;;3.35;0.70;;;21.50;95.00;;;;;;5029828;28;20028;-70
2022/06/09 11:59:15;;;;;;;3.40;0.80;;;21.40;93.50;;;;;;5030756;28;20348;-70
2022/06/09 12:01:47;;;;;;;3.70;0.47;;;21.40;93.60;;;;;;5030773;28;20079;-70
2022/06/09 12:04:28;;;;;;;3.25;0.65;;;21.30;93.20;;;;;;5030475;28;20425;-70
2022/06/09 12:07:10;;;;;;;3.58;0.60;;;21.20;93.30;;;;;;5030977;28;20037;-70
2022/06/09 12:10:03;;;;;;;4.72;0.88;;;21.20;93.30;;;;;;5029845;28;20095;-70
2022/06/09 12:12:43;;;;;;;2.85;0.93;;;21.30;93.20;;;;;;5030773;28;20192;-69
2022/06/09 12:15:11;;;;;;;3.60;1.00;;;21.30;93.40;;;;;;5029421;28;20144;-70
2022/06/09 12:17:51;;;;;;;2.45;0.70;;;21.40;91.90;;;;;;5027810;28;20036;-69
2022/06/09 12:20:56;;;;;;;3.22;0.85;;;21.50;92.30;;;;;;5020408;28;20038;-69
2022/06/09 12:23:37;;;;;;;3.22;0.90;;;21.40;91.40;;;;;;5030059;28;20040;-70
2022/06/09 12:26:09;;;;;;;2.80;0.73;;;21.30;90.70;;;;;;5029585;28;20036;-70
2022/06/09 12:28:50;;;;;;;5.07;1.25;;;21.30;91.30;;;;;;5030872;28;20021;-69
2022/06/09 12:31:18;;;;;;;2.78;0.80;;;21.50;91.70;;;;;;5020135;28;20017;-69
2022/06/09 12:34:11;;;;;;;2.92;0.50;;;21.50;91.10;;;;;;5030163;28;20486;-69
2022/06/09 12:36:53;;;;;;;3.60;0.80;;;21.60;90.40;;;;;;5027670;28;20029;-69
2022/06/09 12:39:44;;;;;;;2.50;0.60;;;21.80;90.00;;;;;;5025285;28;20025;-70
2022/06/09 12:42:26;;;;;;;4.43;0.70;;;22.00;89.40;;;;;;5027815;28;20087;-69
2022/06/09 12:45:18;;;;;;;3.45;0.70;;;23.20;90.90;;;;;;5029652;28;20118;-70
2022/06/09 12:48:10;;;;;;;3.80;0.57;;;22.10;88.90;;;;;;5028248;28;20374;-69
2022/06/09 12:50:48;;;;;;;3.45;0.82;;;22.20;90.00;;;;;;5029037;28;20108;-70
2022/06/09 12:53:45;;;;;;;1.95;0.70;;;22.20;87.00;;;;;;5029435;28;20044;-70
2022/06/09 12:56:28;;;;;;;3.63;0.80;;;22.10;89.30;;;;;;5025399;28;20068;-70
2022/06/09 12:58:55;;;;;;;5.35;0.90;;;22.20;89.20;;;;;;5029627;28;20021;-70
2022/06/09 13:01:25;;;;;;;2.85;0.63;;;22.10;89.50;;;;;;5029245;28;20103;-70
2022/06/09 13:03:52;;;;;;;4.55;0.60;;;22.20;89.60;;;;;;5030338;28;20063;-69
2022/06/09 13:06:28;;;;;;;6.57;1.13;;;22.00;89.20;;;;;;5025353;28;20083;-70
2022/06/09 13:08:59;;;;;;;4.03;0.73;;;22.10;86.90;;;;;;5026281;28;20358;-70
2022/06/09 13:14:23;;;;;;;3.85;0.88;;;22.20;86.60;;;;;;5028876;28;20429;-70
2022/06/09 13:16:54;;;;;;;7.13;0.73;;;22.20;87.80;;;;;;5030123;28;20021;-69
2022/06/09 13:19:22;;;;;;;6.50;0.70;;;22.10;87.60;;;;;;5028963;28;20108;-70
2022/06/09 13:21:49;;;;;;;4.07;0.60;;;21.90;87.60;;;;;;5022852;28;20463;-69
2022/06/09 13:24:22;;;;;;;5.47;0.90;;;21.80;87.90;;;;;;5023378;28;20025;-69
2022/06/09 13:26:50;;;;;;;4.60;0.77;;;21.70;88.80;;;;;;5027465;28;20083;-69
2022/06/09 13:29:26;;;;;;;3.50;0.98;;;22.30;89.20;;;;;;5026122;28;20101;-69
2022/06/09 13:32:14;;;;;;;3.47;0.68;;;21.90;87.20;;;;;;5029778;28;20025;-69
2022/06/09 13:34:44;;;;;;;3.47;0.80;;;23.10;88.10;;;;;;5018283;28;20042;-69
2022/06/09 13:37:13;;;;;;;2.70;0.85;;;22.10;87.30;;;;;;5028845;28;20033;-68